Regen van: 25-09-2020 18:00 tot: 26-09-2020 23:59 waarschuwing voor: Regen niveau: Geel info button
Vandaag en dit weekend valt er onder impuls van stormdepressie Odette geregeld regen.Vandaag ontwikkelen er zich buien die vannacht en zaterdag talrijker en intenser worden. Zaterdagnacht trekt vanuit het oosten een actieve en gestructureerde regenzone over het land.We verwachten neerslaghoeveelheden van rond of meer dan 25 l/m? in 24 uur tijd in Oost-Vlaanderen en Henegouwen tot zaterdagavond, in West-Vlaanderen tegen zondagmiddag.Deze waarschuwing kan later eventueel nog uitgebreid worden naar meer provincies.
Wind van: 25-09-2020 20:00 tot: 26-09-2020 06:59 waarschuwing voor: Wind niveau: Geel info button
In de loop van vrijdagnamiddag, vrijdagavond en een groot deel van vrijdagnacht verwachten we aan zee en over het uiterste westen van het land rukwinden van 90 tot 110 km/u, maar plaatselijk kan dit oplopen tot 120 km/u of wat meer tijdens fikse (onweers)buien. Wat meer landinwaarts liggen de rukwinden meestal tussen 80 en 90 km/u.Naar het centrale deel van het land toe krijgen we vanavond en vannacht windstoten van 70 tot 80 km/u. In de oostelijke provincies zijn de rukwinden minder krachtig.Op de Noordzee waait er een noordwesterstorm.

waarschuwing voor Regen Meer informatie rain snow radar


Bezoek onze andere website:

Template documentation
and downloads

And another site

Forum Leuven-template

EUWEATHER.EU

Verwachtingen Meteociel


U vindt ons ook hier:

Het Weer Aktueel

UK Metoffice

European Weather Network

WeatherCloud

Weather Underground

Benelux Weer Netwerk

AWEKAS

WeatherlinkIP

HAMweather, WeatherForYou, PWS Weather

Wetter.com



METAR rapporten vliegvelden

   
EBAW - Antwerp
Gewijzigd: 25-09-2020 10:50
Grotendeels bewolkt  
Grotendeels bewolkt  
   Wind: ZZW 14.8 km/h
Wind: ZZW 14.8 km/h
Temperatuur: 11°C
Dauwpunt: 7°C
Vochtigheid: 77%
Barometer: 996 hPa
Bewolking: Grotendeels bewolkt
Zicht: meer dan 10 km
Bewolking: Gedeeltelijk bewolkt 1300 ft,
Grotendeels bewolkt 2800 ft
EBAW 250850Z 21008KT 180V240 9999 SCT013 BKN028 11/07 Q0996 NOSIG
EBLG - Li├Ęge
Gewijzigd: 25-09-2020 10:50
Wat regen mogelijk, Motregen, Grotendeels bewolkt  
Wat regen mogelijk, Motregen, Grotendeels bewolkt  
   Wind: ZZW 22.2 km/h
Wind: ZZW 22.2 km/h
Temperatuur: 9°C
Voelt als: 6°C
Dauwpunt: 8°C
Vochtigheid: 94%
Barometer: 997 hPa
Bewolking: Grotendeels bewolkt
Zicht: 6 km
Bewolking: Licht bewolkt 600 ft,
Grotendeels bewolkt 1500 ft
EBLG 250850Z 20012KT 6000 -RADZ FEW006 BKN015 09/08 Q0997 TEMPO 4000 RADZ BKN013
EBCV - Mons/Bergen
Gewijzigd: 25-09-2020 10:55
Wat regen mogelijk, Bewolking  
Wat regen mogelijk, Bewolking  
   Wind: ZW 16.7 km/h
Wind: ZW 16.7 km/h
Temperatuur: 10°C
Voelt als: 8°C
Dauwpunt: 9°C
Vochtigheid: 94%
Barometer: 996 hPa
Bewolking: Bewolking
Zicht: meer dan 10 km
Bewolking: Bewolking 1300 ft
EBCV 250855Z AUTO 22009KT 9999 -RA OVC013/// 10/09 Q0996 GRN
EHBK - Maastricht
Gewijzigd: 25-09-2020 10:55
Grotendeels bewolkt  
Grotendeels bewolkt  
   Wind: ZZW 24.1 km/h
Wind: ZZW 24.1 km/h
Temperatuur: 11°C
Dauwpunt: 7°C
Vochtigheid: 77%
Barometer: 997 hPa
Bewolking: Grotendeels bewolkt
Zicht: meer dan 10 km
Bewolking: Gedeeltelijk bewolkt 2000 ft,
Grotendeels bewolkt 2300 ft,
Grotendeels bewolkt 2800 ft
EHBK 250855Z AUTO 20013KT 9999 SCT020 BKN023 BKN028 11/07 Q0997 NOSIG
ELLX - Luxemburg
Gewijzigd: 25-09-2020 10:50
Buien, Regen, Grotendeels bewolkt  
Buien, Regen, Grotendeels bewolkt  
   Wind: ZZW 25.9 km/h
Wind: ZZW 25.9 km/h
Temperatuur: 9°C
Voelt als: 6°C
Dauwpunt: 7°C
Vochtigheid: 87%
Barometer: 999 hPa
Bewolking: Grotendeels bewolkt
Zicht: 8 km
Bewolking: Licht bewolkt 700 ft,
Gedeeltelijk bewolkt 1000 ft,
Grotendeels bewolkt 1300 ft
ELLX 250850Z 20014KT 170V230 8000 -SHRA FEW007 SCT010 BKN013 09/07 Q0999 BECMG 6000 TEMPO BKN010
EBOS - Oostende
Gewijzigd: 25-09-2020 10:50
Grotendeels bewolkt  
Grotendeels bewolkt  
   Wind: WNW 33.3 km/h
Wind: WNW 33.3 km/h
Temperatuur: 12°C
Dauwpunt: 7°C
Vochtigheid: 72%
Barometer: 995 hPa
Bewolking: Grotendeels bewolkt
Zicht: meer dan 10 km
Bewolking: Licht bewolkt 1200 ft,
Gedeeltelijk bewolkt 2500 ft,
Grotendeels bewolkt 4000 ft
EBOS 250850Z 30018KT 9999 FEW012 SCT025 BKN040 12/07 Q0995 TEMPO 30025G40KT 3500 SHRA BKN013CB

Script ontwikkeld door  Saratoga-weather.org Aangepast voor de template door  Weerstation Leuven

Apparatuur in gebruik:

Weerstation
Davis VP2

Weerprogramma
Meteobridge

Weercomputer
Asus WL -330N3G

Webleverancier
Onecom

Davis VP2

Meteobridge

Asus WL -330N3G

Onecom